| time (UTC) | temp F | wind direction | speed MPH | gust MPH | rain 1hr in | rain 24hr in | rain mn in | humidity % | barometer mb |
| 20260507075704 | 65 | 257 | 3.0 | 6.0 | 0.00 | 0.00 | 0.00 | 63 | 1011.1 |
| 20260507075204 | 64 | 246 | 2.0 | 3.0 | 0.00 | 0.00 | 0.00 | 67 | 1011.1 |
| 20260507074704 | 63 | 265 | 1.0 | 3.0 | 0.00 | 0.00 | 0.00 | 66 | 1011.1 |
| 20260507074205 | 62 | 202 | 1.0 | 4.0 | 0.00 | 0.00 | 0.00 | 69 | 1011.1 |
| 20260507072205 | 62 | 144 | 3.0 | 7.0 | 0.00 | 0.00 | 0.00 | 71 | 1010.9 |
| 20260507071705 | 61 | 138 | 4.0 | 6.0 | 0.00 | 0.00 | 0.00 | 72 | 1010.8 |
| 20260507071204 | 61 | 146 | 3.0 | 6.0 | 0.00 | 0.00 | 0.00 | 73 | 1010.8 |
| 20260507070704 | 61 | 126 | 3.0 | 6.0 | 0.00 | 0.00 | 0.00 | 73 | 1010.8 |
| 20260507070204 | 61 | 115 | 2.0 | 5.0 | 0.00 | 0.00 | 0.00 | 74 | 1010.8 |
| 20260507065705 | 60 | 119 | 2.0 | 4.0 | 0.00 | 0.00 | 0.00 | 75 | 1010.9 |
| 20260507065205 | 59 | 115 | 2.0 | 4.0 | 0.00 | 0.00 | 0.00 | 76 | 1010.9 |
| 20260507063704 | 57 | 0 | 2.0 | 3.0 | 0.00 | 0.00 | 0.00 | 80 | 1010.9 |
| 20260507063205 | 57 | 0 | 1.0 | 3.0 | 0.00 | 0.00 | 0.00 | 81 | 1010.9 |
| 20260507062704 | 56 | 0 | 1.0 | 3.0 | 0.00 | 0.00 | 0.00 | 81 | 1011.0 |
| 20260507062205 | 56 | 0 | 1.0 | 4.0 | 0.00 | 0.00 | 0.00 | 82 | 1010.9 |
| 20260507061704 | 56 | 0 | 1.0 | 4.0 | 0.00 | 0.00 | 0.00 | 82 | 1010.8 |
| 20260507061205 | 56 | 0 | 1.0 | 4.0 | 0.00 | 0.00 | 0.00 | 83 | 1010.8 |
| 20260507060705 | 56 | 0 | 2.0 | 4.0 | 0.00 | 0.00 | 0.00 | 83 | 1010.7 |
| 20260507060204 | 55 | 0 | 2.0 | 4.0 | 0.00 | 0.00 | 0.00 | 83 | 1010.7 |
| 20260507055705 | 55 | 0 | 2.0 | 3.0 | 0.00 | 0.00 | 0.00 | 84 | 1010.7 |
| 20260507055205 | 55 | 0 | 1.0 | 3.0 | 0.00 | 0.00 | 0.00 | 85 | 1010.7 |
| 20260507054205 | 54 | 0 | 1.0 | 3.0 | 0.00 | 0.00 | 0.00 | 85 | 1010.6 |
| 20260507053704 | 54 | 0 | 2.0 | 3.0 | 0.00 | 0.00 | 0.00 | 85 | 1010.6 |
| 20260507053205 | 54 | 0 | 2.0 | 3.0 | 0.00 | 0.00 | 0.00 | 86 | 1010.6 |
| 20260507052704 | 54 | 0 | 1.0 | 3.0 | 0.00 | 0.00 | 0.00 | 85 | 1010.5 |
| 20260507052205 | 54 | 0 | 1.0 | 3.0 | 0.00 | 0.00 | 0.00 | 85 | 1010.5 |
| 20260507051704 | 54 | 0 | 1.0 | 3.0 | 0.00 | 0.00 | 0.00 | 85 | 1010.2 |
| 20260507051205 | 54 | 0 | 1.0 | 3.0 | 0.00 | 0.00 | 0.00 | 84 | 1010.2 |
| 20260507050204 | 53 | 0 | 2.0 | 4.0 | 0.00 | 0.00 | 0.00 | 84 | 1010.2 |
| 20260507045705 | 53 | 0 | 2.0 | 4.0 | 0.00 | 0.00 | 0.00 | 85 | 1010.1 |
| 20260507045205 | 53 | 0 | 2.0 | 3.0 | 0.00 | 0.00 | 0.00 | 85 | 1010.1 |
| 20260507044704 | 53 | 0 | 2.0 | 3.0 | 0.00 | 0.00 | 0.00 | 86 | 1010.0 |
| 20260507044205 | 53 | 0 | 2.0 | 3.0 | 0.00 | 0.00 | 0.00 | 86 | 1010.0 |
| 20260507043704 | 53 | 0 | 1.0 | 2.0 | 0.00 | 0.00 | 0.00 | 87 | 1010.0 |
| 20260507043205 | 53 | 0 | 0.0 | 2.0 | 0.00 | 0.00 | 0.00 | 87 | 1010.0 |
| 20260507042705 | 53 | 0 | 0.0 | 4.0 | 0.00 | 0.00 | 0.00 | 87 | 1010.0 |
| 20260507041705 | 53 | 0 | 2.0 | 4.0 | 0.00 | 0.00 | 0.00 | 87 | 1009.9 |
| 20260507041204 | 52 | 0 | 2.0 | 4.0 | 0.00 | 0.00 | 0.00 | 88 | 1009.9 |
| 20260507040704 | 52 | 0 | 1.0 | 3.0 | 0.00 | 0.00 | 0.00 | 89 | 1009.8 |
| 20260507035705 | 52 | 0 | 0.0 | 4.0 | 0.00 | 0.00 | 0.00 | 89 | 1009.8 |
| 20260507035205 | 52 | 0 | 1.0 | 4.0 | 0.00 | 0.00 | 0.00 | 88 | 1009.7 |
| 20260507034704 | 52 | 0 | 2.0 | 4.0 | 0.00 | 0.00 | 0.00 | 88 | 1009.7 |
| 20260507034205 | 52 | 0 | 1.0 | 3.0 | 0.00 | 0.00 | 0.00 | 89 | 1009.7 |
| 20260507032205 | 52 | 0 | 1.0 | 2.0 | 0.00 | 0.00 | 0.00 | 89 | 1009.4 |
| 20260507031705 | 52 | 0 | 1.0 | 2.0 | 0.00 | 0.00 | 0.00 | 89 | 1009.4 |
| 20260507030705 | 52 | 0 | 0.0 | 2.0 | 0.00 | 0.00 | 0.00 | 89 | 1009.4 |
| 20260507030205 | 52 | 0 | 0.0 | 2.0 | 0.00 | 0.00 | 0.00 | 89 | 1009.4 |
| 20260507025705 | 52 | 0 | 1.0 | 2.0 | 0.00 | 0.00 | 0.00 | 88 | 1009.4 |
| 20260507025204 | 52 | 0 | 0.0 | 1.0 | 0.00 | 0.00 | 0.00 | 88 | 1009.4 |
| 20260507024204 | 52 | 0 | 0.0 | 1.0 | 0.00 | 0.00 | 0.00 | 88 | 1009.3 |
| 20260507023204 | 53 | 0 | 0.0 | 2.0 | 0.00 | 0.00 | 0.00 | 88 | 1009.2 |
| 20260507022705 | 53 | 0 | 0.0 | 2.0 | 0.00 | 0.00 | 0.00 | 88 | 1009.3 |
| 20260507022205 | 53 | 0 | 0.0 | 2.0 | 0.00 | 0.00 | 0.00 | 88 | 1009.4 |
| 20260507021704 | 53 | 0 | 0.0 | 2.0 | 0.00 | 0.00 | 0.00 | 88 | 1009.3 |
| 20260507021205 | 53 | 0 | 0.0 | 2.0 | 0.00 | 0.00 | 0.00 | 88 | 1009.3 |
| 20260507020722 | 53 | 0 | 0.0 | 1.0 | 0.00 | 0.00 | 0.00 | 88 | 1009.3 |
| 20260507020205 | 53 | 0 | 0.0 | 1.0 | 0.00 | 0.00 | 0.00 | 88 | 1009.2 |
| 20260507015204 | 53 | 0 | 0.0 | 2.0 | 0.00 | 0.00 | 0.00 | 88 | 1009.3 |
| 20260507014705 | 53 | 0 | 0.0 | 2.0 | 0.00 | 0.00 | 0.00 | 88 | 1009.3 |
| 20260507014204 | 53 | 0 | 1.0 | 2.0 | 0.00 | 0.00 | 0.00 | 88 | 1009.3 |
| 20260507013705 | 53 | 0 | 1.0 | 3.0 | 0.00 | 0.00 | 0.00 | 88 | 1009.3 |
| 20260507013204 | 53 | 0 | 1.0 | 3.0 | 0.00 | 0.00 | 0.00 | 88 | 1009.2 |
| 20260507012705 | 53 | 0 | 1.0 | 3.0 | 0.00 | 0.00 | 0.00 | 88 | 1009.2 |
| 20260507012205 | 53 | 0 | 0.0 | 2.0 | 0.00 | 0.00 | 0.00 | 88 | 1009.2 |
| 20260507011212 | 53 | 0 | 0.0 | 3.0 | 0.00 | 0.00 | 0.00 | 87 | 1009.1 |
| 20260507010704 | 53 | 0 | 0.0 | 3.0 | 0.00 | 0.00 | 0.00 | 87 | 1009.1 |
| 20260507010204 | 53 | 0 | 1.0 | 3.0 | 0.00 | 0.00 | 0.00 | 87 | 1009.1 |
| 20260507005705 | 53 | 0 | 1.0 | 2.0 | 0.00 | 0.00 | 0.00 | 87 | 1009.0 |
| 20260507005204 | 53 | 0 | 0.0 | 2.0 | 0.00 | 0.00 | 0.00 | 87 | 1009.0 |
| 20260507004705 | 54 | 0 | 0.0 | 2.0 | 0.00 | 0.00 | 0.00 | 86 | 1009.0 |
| 20260507004204 | 54 | 0 | 1.0 | 3.0 | 0.00 | 0.00 | 0.00 | 86 | 1008.9 |
| 20260507003705 | 54 | 0 | 1.0 | 3.0 | 0.00 | 0.00 | 0.00 | 86 | 1008.9 |
| 20260507003205 | 54 | 0 | 1.0 | 3.0 | 0.00 | 0.00 | 0.00 | 86 | 1008.9 |
| 20260507002704 | 54 | 0 | 1.0 | 3.0 | 0.00 | 0.00 | 0.00 | 87 | 1009.0 |
| 20260507002205 | 54 | 0 | 0.0 | 1.0 | 0.00 | 0.00 | 0.00 | 87 | 1008.9 |
| 20260507001704 | 54 | 0 | 0.0 | 1.0 | 0.00 | 0.00 | 0.00 | 87 | 1008.8 |
| 20260507001205 | 54 | 0 | 0.0 | 1.0 | 0.00 | 0.00 | 0.00 | 87 | 1008.9 |
| 20260507000705 | 54 | 0 | 0.0 | 1.0 | 0.00 | 0.00 | 0.00 | 87 | 1008.9 |
| 20260507000205 | 54 | 0 | 0.0 | 2.0 | 0.00 | 0.00 | 0.00 | 86 | 1008.9 |
| 20260506235705 | 54 | 0 | 0.0 | 2.0 | 0.00 | 0.00 | 0.00 | 86 | 1008.9 |
| 20260506235204 | 54 | 0 | 1.0 | 2.0 | 0.00 | 0.00 | 0.00 | 85 | 1008.9 |
| 20260506234704 | 55 | 0 | 0.0 | 2.0 | 0.00 | 0.00 | 0.00 | 85 | 1008.8 |
| 20260506233704 | 55 | 126 | 1.0 | 2.0 | 0.00 | 0.00 | 0.00 | 84 | 1008.8 |
| 20260506233204 | 56 | 111 | 1.0 | 2.0 | 0.00 | 0.00 | 0.00 | 84 | 1008.9 |
| 20260506232205 | 56 | 244 | 1.0 | 5.0 | 0.00 | 0.00 | 0.00 | 83 | 1008.7 |
| 20260506231704 | 56 | 234 | 2.0 | 5.0 | 0.00 | 0.00 | 0.00 | 83 | 1008.8 |
| 20260506231220 | 56 | 211 | 3.0 | 5.0 | 0.00 | 0.00 | 0.00 | 83 | 1008.6 |
| 20260506230704 | 56 | 202 | 3.0 | 4.0 | 0.00 | 0.00 | 0.00 | 83 | 1008.8 |
| 20260506230205 | 56 | 209 | 2.0 | 4.0 | 0.00 | 0.00 | 0.00 | 83 | 1008.9 |
| 20260506225704 | 56 | 189 | 1.0 | 4.0 | 0.00 | 0.00 | 0.00 | 83 | 1008.8 |
| 20260506225205 | 56 | 150 | 1.0 | 4.0 | 0.00 | 0.00 | 0.00 | 84 | 1008.8 |
| 20260506224705 | 56 | 153 | 1.0 | 4.0 | 0.00 | 0.00 | 0.00 | 84 | 1008.8 |
| 20260506224205 | 56 | 191 | 1.0 | 1.0 | 0.00 | 0.00 | 0.00 | 84 | 1008.7 |
| 20260506223705 | 56 | 116 | 0.0 | 2.0 | 0.00 | 0.00 | 0.00 | 84 | 1008.6 |
| 20260506223204 | 56 | 114 | 0.0 | 2.0 | 0.00 | 0.00 | 0.00 | 83 | 1008.6 |
| 20260506222705 | 56 | 117 | 1.0 | 1.0 | 0.00 | 0.00 | 0.00 | 83 | 1008.6 |
| 20260506221705 | 56 | 112 | 0.0 | 1.0 | 0.00 | 0.00 | 0.00 | 83 | 1008.7 |
| 20260506221205 | 56 | 109 | 0.0 | 1.0 | 0.00 | 0.00 | 0.00 | 83 | 1008.7 |
| 20260506220705 | 56 | 110 | 0.0 | 0.0 | 0.00 | 0.00 | 0.00 | 83 | 1008.8 |
| 20260506220205 | 56 | 108 | 0.0 | 1.0 | 0.00 | 0.00 | 0.00 | 84 | 1008.8 |
| 20260506215704 | 56 | 111 | 0.0 | 1.0 | 0.00 | 0.00 | 0.00 | 83 | 1008.8 |
| 20260506215205 | 56 | 110 | 0.0 | 1.0 | 0.00 | 0.00 | 0.00 | 84 | 1008.7 |
| 20260506214704 | 56 | 112 | 0.0 | 1.0 | 0.00 | 0.00 | 0.00 | 84 | 1008.8 |
| 20260506214205 | 55 | 116 | 0.0 | 1.0 | 0.00 | 0.00 | 0.00 | 84 | 1008.8 |
| 20260506213704 | 56 | 115 | 0.0 | 2.0 | 0.00 | 0.00 | 0.00 | 84 | 1008.8 |
| 20260506213205 | 56 | 119 | 1.0 | 2.0 | 0.00 | 0.00 | 0.00 | 84 | 1008.7 |
| 20260506212704 | 56 | 119 | 1.0 | 1.0 | 0.00 | 0.00 | 0.00 | 84 | 1008.6 |
| 20260506212205 | 56 | 106 | 0.0 | 2.0 | 0.00 | 0.00 | 0.00 | 84 | 1008.6 |
| 20260506211705 | 56 | 107 | 0.0 | 2.0 | 0.00 | 0.00 | 0.00 | 84 | 1008.6 |
| 20260506211205 | 55 | 109 | 0.0 | 2.0 | 0.00 | 0.00 | 0.00 | 84 | 1008.5 |
| 20260506210204 | 56 | 118 | 0.0 | 1.0 | 0.00 | 0.00 | 0.00 | 83 | 1008.4 |
| 20260506205705 | 56 | 119 | 0.0 | 4.0 | 0.00 | 0.00 | 0.00 | 82 | 1008.4 |
| 20260506205204 | 56 | 116 | 1.0 | 4.0 | 0.00 | 0.00 | 0.00 | 82 | 1008.5 |
| 20260506204704 | 57 | 117 | 1.0 | 4.0 | 0.00 | 0.00 | 0.00 | 81 | 1008.4 |
| 20260506204205 | 57 | 116 | 1.0 | 3.0 | 0.00 | 0.00 | 0.00 | 80 | 1008.5 |
| 20260506203704 | 58 | 110 | 0.0 | 3.0 | 0.00 | 0.00 | 0.00 | 79 | 1008.5 |
| 20260506203204 | 58 | 207 | 1.0 | 3.0 | 0.00 | 0.00 | 0.00 | 78 | 1008.5 |
| 20260506202704 | 59 | 190 | 2.0 | 3.0 | 0.00 | 0.00 | 0.00 | 77 | 1008.4 |
| 20260506202205 | 59 | 205 | 1.0 | 2.0 | 0.00 | 0.00 | 0.00 | 78 | 1008.3 |
| 20260506201704 | 58 | 200 | 1.0 | 2.0 | 0.00 | 0.00 | 0.00 | 78 | 1008.2 |
| 20260506201205 | 58 | 0 | 1.0 | 2.0 | 0.00 | 0.00 | 0.00 | 79 | 1008.2 |
| 20260506200704 | 58 | 0 | 1.0 | 2.0 | 0.00 | 0.00 | 0.00 | 79 | 1008.2 |
| 20260506200205 | 59 | 198 | 1.0 | 2.0 | 0.00 | 0.00 | 0.00 | 78 | 1008.3 |
| 20260506195204 | 59 | 187 | 1.0 | 3.0 | 0.00 | 0.00 | 0.00 | 78 | 1008.3 |
| 20260506194705 | 59 | 187 | 1.0 | 3.0 | 0.00 | 0.00 | 0.00 | 78 | 1008.3 |
| 20260506194205 | 59 | 186 | 0.0 | 2.0 | 0.00 | 0.00 | 0.00 | 78 | 1008.3 |
| 20260506193705 | 59 | 203 | 0.0 | 2.0 | 0.00 | 0.00 | 0.00 | 78 | 1008.2 |
| 20260506193204 | 59 | 205 | 0.0 | 2.0 | 0.00 | 0.00 | 0.00 | 79 | 1008.2 |
| 20260506192705 | 58 | 211 | 0.0 | 2.0 | 0.00 | 0.00 | 0.00 | 79 | 1008.1 |
| 20260506192204 | 58 | 205 | 0.0 | 2.0 | 0.00 | 0.00 | 0.00 | 79 | 1008.1 |
| 20260506191704 | 59 | 295 | 0.0 | 2.0 | 0.00 | 0.00 | 0.00 | 78 | 1008.1 |
| 20260506191205 | 59 | 296 | 0.0 | 1.0 | 0.00 | 0.00 | 0.00 | 78 | 1008.2 |
| 20260506190704 | 59 | 270 | 0.0 | 3.0 | 0.00 | 0.00 | 0.00 | 76 | 1008.0 |
| 20260506190205 | 60 | 272 | 0.0 | 3.0 | 0.00 | 0.00 | 0.00 | 75 | 1008.0 |
| 20260506185205 | 61 | 211 | 1.0 | 5.0 | 0.00 | 0.00 | 0.00 | 74 | 1007.6 |
| 20260506184704 | 61 | 0 | 1.0 | 5.0 | 0.00 | 0.00 | 0.00 | 74 | 1007.5 |
| 20260506184205 | 61 | 0 | 2.0 | 5.0 | 0.00 | 0.00 | 0.00 | 74 | 1007.4 |
| 20260506183205 | 61 | 244 | 2.0 | 5.0 | 0.00 | 0.00 | 0.00 | 74 | 1007.3 |
| 20260506182705 | 61 | 253 | 2.0 | 6.0 | 0.00 | 0.00 | 0.00 | 73 | 1007.1 |
| 20260506181705 | 62 | 250 | 2.0 | 7.0 | 0.00 | 0.00 | 0.00 | 72 | 1007.0 |
| 20260506181205 | 62 | 217 | 3.0 | 7.0 | 0.00 | 0.00 | 0.00 | 71 | 1006.9 |
| 20260506180705 | 62 | 196 | 3.0 | 7.0 | 0.00 | 0.00 | 0.00 | 71 | 1006.9 |
| 20260506175705 | 62 | 212 | 3.0 | 7.0 | 0.00 | 0.00 | 0.00 | 70 | 1007.0 |
| 20260506175204 | 62 | 167 | 3.0 | 7.0 | 0.00 | 0.00 | 0.00 | 70 | 1006.9 |
| 20260506174704 | 63 | 217 | 3.0 | 7.0 | 0.00 | 0.00 | 0.00 | 70 | 1006.9 |
| 20260506174205 | 63 | 197 | 3.0 | 7.0 | 0.00 | 0.00 | 0.00 | 70 | 1006.9 |
| 20260506173704 | 63 | 213 | 3.0 | 7.0 | 0.00 | 0.00 | 0.00 | 70 | 1006.8 |
| 20260506173205 | 63 | 225 | 3.0 | 9.0 | 0.00 | 0.00 | 0.00 | 69 | 1006.8 |
| 20260506172704 | 64 | 235 | 3.0 | 9.0 | 0.00 | 0.00 | 0.00 | 69 | 1006.8 |
| 20260506172205 | 64 | 232 | 3.0 | 9.0 | 0.00 | 0.00 | 0.00 | 69 | 1006.9 |
| 20260506171705 | 64 | 201 | 3.0 | 7.0 | 0.00 | 0.00 | 0.00 | 68 | 1006.7 |
| 20260506171204 | 64 | 180 | 3.0 | 9.0 | 0.00 | 0.00 | 0.00 | 68 | 1006.7 |
| 20260506170704 | 64 | 192 | 4.0 | 9.0 | 0.00 | 0.00 | 0.00 | 68 | 1006.7 |
| 20260506170205 | 64 | 240 | 4.0 | 9.0 | 0.00 | 0.00 | 0.00 | 67 | 1006.7 |
| 20260506165705 | 64 | 189 | 4.0 | 9.0 | 0.00 | 0.00 | 0.00 | 67 | 1006.7 |
| 20260506165205 | 64 | 238 | 4.0 | 9.0 | 0.00 | 0.00 | 0.00 | 67 | 1006.8 |
| 20260506164205 | 64 | 242 | 4.0 | 8.0 | 0.00 | 0.00 | 0.00 | 66 | 1006.9 |
| 20260506163705 | 64 | 235 | 4.0 | 8.0 | 0.00 | 0.00 | 0.00 | 66 | 1006.9 |
| 20260506163204 | 65 | 0 | 4.0 | 12.0 | 0.00 | 0.00 | 0.00 | 66 | 1006.9 |
| 20260506162705 | 65 | 242 | 4.0 | 12.0 | 0.00 | 0.00 | 0.00 | 65 | 1006.9 |
| 20260506162216 | 65 | 143 | 5.0 | 13.0 | 0.00 | 0.00 | 0.00 | 65 | 1007.0 |
| 20260506161707 | 65 | 208 | 6.0 | 13.0 | 0.00 | 0.00 | 0.00 | 65 | 1007.1 |
| 20260506161207 | 65 | 240 | 6.0 | 13.0 | 0.00 | 0.00 | 0.00 | 65 | 1007.1 |
| 20260506160704 | 65 | 240 | 5.0 | 11.0 | 0.00 | 0.00 | 0.00 | 64 | 1007.0 |
| 20260506160228 | 66 | 183 | 5.0 | 11.0 | 0.00 | 0.00 | 0.00 | 63 | 1006.9 |
| 20260506155705 | 67 | 173 | 4.0 | 10.0 | 0.00 | 0.00 | 0.00 | 62 | 1007.0 |
| 20260506155205 | 68 | 0 | 3.0 | 10.0 | 0.00 | 0.00 | 0.00 | 61 | 1007.0 |
| 20260506154705 | 68 | 0 | 4.0 | 10.0 | 0.00 | 0.00 | 0.00 | 60 | 1007.1 |
| 20260506153705 | 67 | 218 | 4.0 | 8.0 | 0.00 | 0.00 | 0.00 | 62 | 1007.1 |
| 20260506153205 | 66 | 217 | 4.0 | 8.0 | 0.00 | 0.00 | 0.00 | 63 | 1007.1 |
| 20260506152704 | 66 | 198 | 4.0 | 8.0 | 0.00 | 0.00 | 0.00 | 63 | 1007.2 |
| 20260506151704 | 66 | 236 | 4.0 | 12.0 | 0.00 | 0.00 | 0.00 | 63 | 1007.2 |
| 20260506151205 | 66 | 188 | 4.0 | 15.0 | 0.00 | 0.00 | 0.00 | 63 | 1007.2 |
| 20260506150705 | 66 | 225 | 5.0 | 15.0 | 0.00 | 0.00 | 0.00 | 62 | 1007.3 |
| 20260506150205 | 66 | 183 | 5.0 | 15.0 | 0.00 | 0.00 | 0.00 | 62 | 1007.2 |
| 20260506145705 | 66 | 180 | 5.0 | 13.0 | 0.00 | 0.00 | 0.00 | 62 | 1007.3 |
| 20260506145204 | 67 | 153 | 5.0 | 13.0 | 0.00 | 0.00 | 0.00 | 61 | 1007.2 |
| 20260506144704 | 67 | 233 | 5.0 | 14.0 | 0.00 | 0.00 | 0.00 | 61 | 1007.1 |
| 20260506144204 | 67 | 209 | 7.0 | 14.0 | 0.00 | 0.00 | 0.00 | 60 | 1007.2 |
| 20260506143205 | 67 | 214 | 5.0 | 11.0 | 0.00 | 0.00 | 0.00 | 59 | 1007.1 |
| 20260506142205 | 67 | 178 | 5.0 | 13.0 | 0.00 | 0.00 | 0.00 | 59 | 1007.1 |
| 20260506140705 | 68 | 215 | 5.0 | 12.0 | 0.00 | 0.00 | 0.00 | 58 | 1007.1 |
| 20260506140204 | 68 | 211 | 5.0 | 13.0 | 0.00 | 0.00 | 0.00 | 57 | 1007.0 |
| 20260506135204 | 69 | 195 | 5.0 | 13.0 | 0.00 | 0.00 | 0.00 | 56 | 1007.0 |
| 20260506134704 | 69 | 196 | 5.0 | 10.0 | 0.00 | 0.00 | 0.00 | 55 | 1007.0 |
| 20260506134205 | 69 | 146 | 4.0 | 10.0 | 0.00 | 0.00 | 0.00 | 55 | 1007.1 |
| 20260506133704 | 70 | 225 | 4.0 | 11.0 | 0.00 | 0.00 | 0.00 | 55 | 1007.1 |
| 20260506132704 | 69 | 215 | 6.0 | 12.0 | 0.00 | 0.00 | 0.00 | 55 | 1007.2 |
| 20260506132205 | 69 | 171 | 5.0 | 12.0 | 0.00 | 0.00 | 0.00 | 54 | 1007.2 |
| 20260506131204 | 70 | 184 | 5.0 | 12.0 | 0.00 | 0.00 | 0.00 | 53 | 1007.3 |
| 20260506130704 | 71 | 200 | 5.0 | 12.0 | 0.00 | 0.00 | 0.00 | 52 | 1007.1 |
| 20260506125704 | 71 | 243 | 4.0 | 10.0 | 0.00 | 0.00 | 0.00 | 52 | 1007.2 |
| 20260506125205 | 70 | 201 | 4.0 | 10.0 | 0.00 | 0.00 | 0.00 | 52 | 1007.3 |
| 20260506124704 | 70 | 197 | 4.0 | 11.0 | 0.00 | 0.00 | 0.00 | 51 | 1007.3 |
| 20260506124205 | 70 | 247 | 5.0 | 11.0 | 0.00 | 0.00 | 0.00 | 50 | 1007.4 |
| 20260506123704 | 71 | 204 | 5.0 | 11.0 | 0.00 | 0.00 | 0.00 | 50 | 1007.4 |
| 20260506123205 | 71 | 254 | 5.0 | 11.0 | 0.00 | 0.00 | 0.00 | 50 | 1007.5 |
| 20260506122704 | 71 | 215 | 5.0 | 10.0 | 0.00 | 0.00 | 0.00 | 50 | 1007.4 |
| 20260506122205 | 71 | 180 | 4.0 | 10.0 | 0.00 | 0.00 | 0.00 | 50 | 1007.5 |
| 20260506121705 | 71 | 249 | 4.0 | 10.0 | 0.00 | 0.00 | 0.00 | 49 | 1007.4 |
| 20260506121205 | 70 | 191 | 4.0 | 10.0 | 0.00 | 0.00 | 0.00 | 52 | 1007.5 |
| 20260506120704 | 70 | 213 | 5.0 | 14.0 | 0.00 | 0.00 | 0.00 | 52 | 1007.5 |
| 20260506120222 | 70 | 271 | 5.0 | 14.0 | 0.00 | 0.00 | 0.00 | 52 | 1007.5 |
| 20260506115704 | 70 | 229 | 5.0 | 14.0 | 0.00 | 0.00 | 0.00 | 51 | 1007.6 |
| 20260506115204 | 70 | 275 | 4.0 | 11.0 | 0.00 | 0.00 | 0.00 | 49 | 1007.6 |
| 20260506114704 | 70 | 198 | 5.0 | 11.0 | 0.00 | 0.00 | 0.00 | 50 | 1007.7 |
| 20260506114227 | 71 | 253 | 5.0 | 11.0 | 0.00 | 0.00 | 0.00 | 48 | 1007.7 |
| 20260506113205 | 71 | 267 | 4.0 | 14.0 | 0.00 | 0.00 | 0.00 | 45 | 1007.9 |
| 20260506112704 | 72 | 282 | 5.0 | 14.0 | 0.00 | 0.00 | 0.00 | 45 | 1008.0 |
| 20260506111704 | 71 | 221 | 6.0 | 15.0 | 0.00 | 0.00 | 0.00 | 46 | 1008.1 |
| 20260506111205 | 70 | 263 | 6.0 | 11.0 | 0.00 | 0.00 | 0.00 | 47 | 1008.1 |
| 20260506110705 | 69 | 227 | 5.0 | 11.0 | 0.00 | 0.00 | 0.00 | 49 | 1008.0 |
| 20260506110205 | 69 | 242 | 5.0 | 11.0 | 0.00 | 0.00 | 0.00 | 50 | 1008.2 |
| 20260506105704 | 69 | 279 | 5.0 | 10.0 | 0.00 | 0.00 | 0.00 | 53 | 1008.2 |
| 20260506105205 | 68 | 242 | 4.0 | 12.0 | 0.00 | 0.00 | 0.00 | 54 | 1008.3 |
| 20260506104704 | 68 | 184 | 4.0 | 12.0 | 0.00 | 0.00 | 0.00 | 53 | 1008.3 |
| 20260506104205 | 68 | 242 | 6.0 | 12.0 | 0.00 | 0.00 | 0.00 | 52 | 1008.4 |
| 20260506103704 | 68 | 262 | 5.0 | 12.0 | 0.00 | 0.00 | 0.00 | 52 | 1008.4 |
| 20260506103205 | 68 | 236 | 4.0 | 11.0 | 0.00 | 0.00 | 0.00 | 51 | 1008.4 |
| 20260506102205 | 69 | 215 | 3.0 | 9.0 | 0.00 | 0.00 | 0.00 | 47 | 1008.4 |
| 20260506100704 | 69 | 248 | 4.0 | 9.0 | 0.00 | 0.00 | 0.00 | 48 | 1008.4 |
| 20260506100223 | 69 | 257 | 4.0 | 10.0 | 0.00 | 0.00 | 0.00 | 48 | 1008.4 |
| 20260506095705 | 69 | 235 | 5.0 | 10.0 | 0.00 | 0.00 | 0.00 | 47 | 1008.5 |
| 20260506095205 | 69 | 220 | 5.0 | 12.0 | 0.00 | 0.00 | 0.00 | 46 | 1008.4 |
| 20260506094204 | 72 | 226 | 5.0 | 12.0 | 0.00 | 0.00 | 0.00 | 44 | 1008.4 |
| 20260506093705 | 71 | 247 | 5.0 | 12.0 | 0.00 | 0.00 | 0.00 | 45 | 1008.4 |
| 20260506093204 | 71 | 192 | 5.0 | 11.0 | 0.00 | 0.00 | 0.00 | 45 | 1008.4 |
| 20260506092205 | 71 | 222 | 5.0 | 14.0 | 0.00 | 0.00 | 0.00 | 45 | 1008.3 |
| 20260506091704 | 70 | 241 | 5.0 | 14.0 | 0.00 | 0.00 | 0.00 | 45 | 1008.3 |
| 20260506091204 | 70 | 238 | 4.0 | 12.0 | 0.00 | 0.00 | 0.00 | 45 | 1008.3 |
| 20260506090704 | 70 | 152 | 5.0 | 12.0 | 0.00 | 0.00 | 0.00 | 47 | 1008.2 |
| 20260506090205 | 71 | 154 | 5.0 | 12.0 | 0.00 | 0.00 | 0.00 | 46 | 1008.3 |
| 20260506085704 | 70 | 144 | 5.0 | 9.0 | 0.00 | 0.00 | 0.00 | 48 | 1008.4 |
| 20260506084704 | 70 | 207 | 3.0 | 8.0 | 0.00 | 0.00 | 0.00 | 49 | 1008.6 |
| 20260506084205 | 70 | 244 | 3.0 | 13.0 | 0.00 | 0.00 | 0.00 | 49 | 1008.5 |
| 20260506083204 | 68 | 101 | 4.0 | 13.0 | 0.00 | 0.00 | 0.00 | 53 | 1008.6 |
| 20260506082705 | 68 | 219 | 4.0 | 10.0 | 0.00 | 0.00 | 0.00 | 52 | 1008.6 |
| 20260506082205 | 68 | 200 | 4.0 | 10.0 | 0.00 | 0.00 | 0.00 | 51 | 1008.5 |
| 20260506081704 | 68 | 247 | 4.0 | 9.0 | 0.00 | 0.00 | 0.00 | 52 | 1008.6 |
| 20260506081205 | 68 | 181 | 3.0 | 8.0 | 0.00 | 0.00 | 0.00 | 52 | 1008.6 |
| 20260506080704 | 68 | 215 | 2.0 | 6.0 | 0.00 | 0.00 | 0.00 | 53 | 1008.6 |
| 20260506080205 | 68 | 223 | 2.0 | 6.0 | 0.00 | 0.00 | 0.00 | 53 | 1008.7 |